Latest Weather Observations for Cummins Airport

IDS60801

Issued at 8:35 am CST Friday 29 August 2014 (issued every 30 minutes, with the page automatically refreshed every 10 minutes)

About weather observations | Map of weather stations | Latest weather observations for SA | Other Formats
Station Details ID: 018217 Name: CUMMINS AERO Lat: -34.25 Lon: 135.71 Height: 60.11 m
Data from the previous 72 hours. | See also: Recent months at Cummins Airport
Date/Time
CST
Temp
°C
App
Temp
°C
Dew
Point
Rel
Hum
%
Delta-T
°C
Wind Press
QNH
hPa
Press
MSL
hPa
Rain
since 9 am
mm
Dir
 
Spd
km/h
Gust
km/h
Spd
kts
Gust
kts
29/08:30am 13.6 12.5 10.0 79 1.9 NNE 6 7 3 4 1027.5 1027.6 0.0
29/08:00am 10.8 8.6 8.0 83 1.4 NE 9 11 5 6 1027.2 1027.3 0.0
29/07:30am 8.8 5.7 7.3 90 0.7 NE 13 15 7 8 1026.9 1027.0 0.0
29/07:00am 8.4 5.7 7.3 93 0.5 NE 11 15 6 8 1026.5 1026.6 0.0
29/06:30am 9.0 6.0 7.8 92 0.6 NNE 13 15 7 8 1026.3 1026.4 0.0
29/06:00am 8.6 5.9 7.5 93 0.5 NNE 11 15 6 8 1025.9 1026.0 0.0
29/05:30am 8.8 6.6 7.7 93 0.5 NNE 9 11 5 6 1025.9 1026.0 0.0
29/05:00am 9.7 7.2 8.0 89 0.8 NE 11 15 6 8 1025.7 1025.8 0.0
29/04:30am 10.0 7.2 8.4 90 0.8 NE 13 15 7 8 1025.7 1025.8 0.0
29/04:00am 9.4 7.1 7.5 88 0.9 NNE 9 13 5 7 1025.7 1025.8 0.0
29/03:30am 10.6 8.0 7.8 83 1.3 NE 11 15 6 8 1025.9 1026.0 0.0
29/03:00am 10.7 8.0 7.4 80 1.6 ENE 11 17 6 9 1026.2 1026.3 0.0
29/02:30am 11.3 8.2 7.2 76 2.0 NE 13 17 7 9 1026.4 1026.5 0.0
29/02:00am 12.6 9.2 7.5 71 2.5 NE 15 19 8 10 1026.6 1026.7 0.0
29/01:30am 11.8 9.2 7.9 77 1.9 NE 11 15 6 8 1026.7 1026.8 0.0
29/01:00am 10.6 8.2 7.1 79 1.7 NE 9 13 5 7 1026.8 1026.9 0.0
29/12:30am 12.9 10.1 7.1 68 2.8 ENE 11 15 6 8 1026.8 1026.9 0.0
29/12:00am 13.7 10.5 6.8 63 3.3 ENE 13 20 7 11 1026.7 1026.8 0.0
 
Date/Time
CST
Temp
°C
App
Temp
°C
Dew
Point
Rel
Hum
%
Delta-T
°C
Wind Press
QNH
hPa
Press
MSL
hPa
Rain
since 9 am
mm
Dir
 
Spd
km/h
Gust
km/h
Spd
kts
Gust
kts
28/11:30pm 14.1 10.5 6.7 61 3.6 E 15 20 8 11 1026.6 1026.7 0.0
28/11:00pm 11.3 8.6 5.8 69 2.6 NNE 9 13 5 7 1026.5 1026.6 0.0
28/10:30pm 14.3 10.7 5.1 54 4.3 ENE 13 17 7 9 1026.5 1026.6 0.0
28/10:00pm 14.0 10.6 5.9 58 3.9 ENE 13 19 7 10 1026.6 1026.7 0.0
28/09:30pm 13.8 10.0 5.9 59 3.7 ENE 15 19 8 10 1026.6 1026.7 0.0
28/09:00pm 13.5 10.6 6.6 63 3.3 NE 11 17 6 9 1026.6 1026.7 0.0
28/08:30pm 13.9 11.9 7.0 63 3.3 ENE 7 13 4 7 1026.5 1026.6 0.0
28/08:00pm 14.4 11.2 6.7 60 3.7 ENE 13 17 7 9 1026.2 1026.3 0.0
28/07:30pm 14.7 11.7 7.5 62 3.5 ENE 13 17 7 9 1026.0 1026.1 0.0
28/07:00pm 15.5 12.7 8.7 64 3.5 ENE 13 19 7 10 1025.7 1025.8 0.0
28/06:30pm 15.9 13.9 10.0 68 3.1 E 11 17 6 9 1025.5 1025.6 0.0
28/06:00pm 17.2 15.1 11.0 67 3.3 E 13 17 7 9 1025.5 1025.6 0.0
28/05:30pm 19.1 18.1 13.3 69 3.3 E 11 17 6 9 1025.5 1025.6 0.0
28/05:00pm 22.4 21.1 9.2 43 7.1 E 6 7 3 4 1025.2 1025.3 0.0
28/04:30pm 23.8 23.8 9.8 41 7.6 CALM 0 0 0 0 1025.3 1025.4 0.0
28/04:00pm 24.1 23.3 6.4 32 9.1 CALM 0 6 0 3 1025.2 1025.3 0.0
28/03:30pm 23.9 21.7 6.2 32 9.0 NNE 7 9 4 5 1025.5 1025.6 0.0
28/03:00pm 24.2 22.2 6.9 33 9.0 N 7 13 4 7 1025.6 1025.7 0.0
28/02:30pm 24.2 22.2 6.9 33 9.0 N 7 13 4 7 1025.8 1025.9 0.0
28/02:00pm 24.0 21.4 7.6 35 8.6 N 11 15 6 8 1026.0 1026.1 0.0
28/01:30pm 23.5 20.1 5.9 32 8.9 N 13 17 7 9 1026.1 1026.2 0.0
28/01:00pm 22.9 20.2 9.0 41 7.5 N 13 19 7 10 1026.5 1026.6 0.0
28/12:30pm 22.2 19.3 8.0 40 7.4 N 13 17 7 9 1026.8 1026.9 0.0
28/12:00pm 21.9 19.3 9.4 45 6.7 NNW 13 20 7 11 1027.2 1027.3 0.0
28/11:30am 21.6 18.5 11.6 53 5.6 N 19 24 10 13 1027.3 1027.4 0.0
28/11:00am 20.5 17.8 11.7 57 4.9 N 17 22 9 12 1027.5 1027.6 0.0
28/10:30am 19.3 16.5 11.3 60 4.4 N 17 20 9 11 1027.7 1027.8 0.0
28/10:00am 18.1 16.1 11.4 65 3.7 NNE 13 20 7 11 1027.8 1027.9 0.0
28/09:30am 16.7 14.4 10.5 67 3.3 N 13 19 7 10 1028.0 1028.1 0.0
28/09:00am 14.9 13.5 12.2 84 1.5 NNE 11 15 6 8 1028.0 1028.1 0.0
28/08:30am 12.6 12.1 12.6 100 0.0 NNE 7 11 4 6 1027.9 1028.0 0.0
28/08:00am 8.8 6.8 8.8 100 0.0 NNE 9 11 5 6 1027.7 1027.8 0.0
28/07:30am 4.1 2.0 4.1 100 0.0 WSW 4 7 2 4 1027.6 1027.7 0.0
28/07:00am 3.3 0.7 3.3 100 0.0 N 6 6 3 3 1027.3 1027.4 0.0
28/06:30am 4.1 2.8 4.1 100 0.0 CALM 0 0 0 0 1026.9 1027.0 0.0
28/06:00am 3.6 2.2 3.6 100 0.0 CALM 0 0 0 0 1026.6 1026.7 0.0
28/05:30am 2.9 1.4 2.9 100 0.0 CALM 0 0 0 0 1026.5 1026.6 0.0
28/05:00am 3.8 2.4 3.8 100 0.0 CALM 0 0 0 0 1026.3 1026.4 0.0
28/04:30am 3.5 1.7 3.5 100 0.0 SW 2 6 1 3 1026.3 1026.4 0.0
28/04:00am 3.8 1.1 3.8 100 0.0 W 7 7 4 4 1026.2 1026.3 0.0
28/03:30am 3.5 2.1 3.5 100 0.0 CALM 0 0 0 0 1026.2 1026.3 0.0
28/03:00am 3.6 2.2 3.6 100 0.0 CALM 0 0 0 0 1026.4 1026.5 0.0
28/02:30am 4.2 2.9 4.2 100 0.0 CALM 0 0 0 0 1026.9 1027.0 0.0
28/02:00am 4.8 2.3 4.8 100 0.0 WSW 7 9 4 5 1027.2 1027.3 0.0
28/01:30am 4.2 1.8 4.2 100 0.0 SW 6 7 3 4 1027.1 1027.2 0.0
28/01:00am 5.1 3.6 5.1 100 0.0 WNW 2 7 1 4 1027.1 1027.2 0.0
28/12:30am 5.9 5.0 5.9 100 0.0 CALM 0 0 0 0 1027.1 1027.2 0.0
28/12:00am 5.6 4.2 5.6 100 0.0 SE 2 9 1 5 1027.2 1027.3 0.0
 
Date/Time
CST
Temp
°C
App
Temp
°C
Dew
Point
Rel
Hum
%
Delta-T
°C
Wind Press
QNH
hPa
Press
MSL
hPa
Rain
since 9 am
mm
Dir
 
Spd
km/h
Gust
km/h
Spd
kts
Gust
kts
27/11:30pm 4.7 1.4 4.7 100 0.0 S 11 11 6 6 1027.4 1027.5 0.0
27/11:00pm 5.5 3.3 5.5 100 0.0 WSW 6 7 3 4 1027.3 1027.4 0.0
27/10:30pm 6.3 3.7 6.3 100 0.0 SW 9 11 5 6 1027.4 1027.5 0.0
27/10:00pm 5.8 3.5 5.8 100 0.0 SW 7 9 4 5 1027.2 1027.3 0.0
27/09:30pm 7.6 5.3 7.6 100 0.0 NW 9 13 5 7 1027.3 1027.4 0.0
27/09:00pm 8.0 6.9 6.8 92 0.6 ESE 2 9 1 5 1026.8 1026.9 0.0
27/08:30pm 10.2 9.6 7.3 82 1.4 CALM 0 0 0 0 1026.7 1026.8 0.0
27/08:00pm 12.1 10.3 7.2 72 2.4 ENE 6 7 3 4 1026.4 1026.5 0.0
27/07:30pm 12.5 10.6 9.0 79 1.8 E 9 13 5 7 1026.1 1026.2 0.0
27/07:00pm 12.7 10.5 9.3 80 1.7 E 11 17 6 9 1025.7 1025.8 0.0
27/06:30pm 14.8 12.3 11.2 79 1.9 E 15 19 8 10 1025.4 1025.5 0.0
27/06:00pm 16.2 14.8 13.3 83 1.6 E 13 17 7 9 1025.2 1025.3 0.0
27/05:30pm 18.6 18.1 13.7 73 2.8 E 9 15 5 8 1024.9 1025.0 0.0
27/05:00pm 20.7 19.4 11.3 55 5.2 E 9 11 5 6 1024.5 1024.6 0.0
27/04:30pm 21.3 19.8 10.5 50 5.9 ESE 9 13 5 7 1024.3 1024.4 0.0
27/04:00pm 21.9 20.2 9.8 46 6.6 E 9 11 5 6 1024.1 1024.2 0.0
27/03:30pm 21.9 20.3 8.8 43 6.9 ENE 7 11 4 6 1024.3 1024.4 0.0
27/03:00pm 22.1 20.8 7.5 39 7.6 ENE 4 11 2 6 1024.4 1024.5 0.0
27/02:30pm 21.4 19.5 7.6 41 7.1 NE 7 13 4 7 1024.6 1024.7 0.0
27/02:00pm 21.6 19.4 5.1 34 8.2 NE 6 11 3 6 1024.7 1024.8 0.0
27/01:30pm 21.4 19.5 7.6 41 7.1 NE 7 15 4 8 1025.0 1025.1 0.0
27/01:00pm 20.8 18.6 7.8 43 6.7 NE 9 15 5 8 1025.3 1025.4 0.0
27/12:30pm 20.5 18.9 8.8 47 6.1 NE 7 11 4 6 1025.8 1025.9 0.0
27/12:00pm 20.1 18.0 8.4 47 6.1 NE 9 13 5 7 1026.2 1026.3 0.0
27/11:30am 19.1 17.3 7.8 48 5.8 NE 7 11 4 6 1026.4 1026.5 0.0
27/11:00am 18.4 16.7 8.4 52 5.2 ENE 7 11 4 6 1026.5 1026.6 0.0
27/10:30am 17.2 16.3 10.8 66 3.4 NNE 6 9 3 5 1026.7 1026.8 0.0
27/10:00am 15.9 16.5 13.0 83 1.6 N 2 6 1 3 1026.9 1027.0 0.0
27/09:30am 12.4 13.2 12.4 100 0.0 CALM 0 0 0 0 1026.7 1026.8 0.0
27/09:00am 9.9 9.9 9.9 100 0.0 CALM 0 0 0 0 1026.6 1026.7 0.0
27/08:30am 8.6 8.3 8.6 100 0.0 CALM 0 0 0 0 1026.4 1026.5 0.0
27/08:00am 5.9 3.6 5.9 100 0.0 SW 7 11 4 6 1026.0 1026.1 0.0
27/07:30am 2.7 0.4 2.7 100 0.0 WSW 4 9 2 5 1025.5 1025.6 0.0
27/07:00am 1.9 -1.5 1.9 100 0.0 SW 9 13 5 7 1025.2 1025.3 0.0
27/06:30am 2.4 0.8 2.4 100 0.0 CALM 0 0 0 0 1024.8 1024.9 0.0
27/06:00am 2.9 1.4 2.9 100 0.0 CALM 0 0 0 0 1024.5 1024.6 0.0
27/05:30am 3.5 2.1 3.5 100 0.0 CALM 0 0 0 0 1024.5 1024.6 0.0
27/05:00am 3.1 1.2 3.1 100 0.0 WSW 2 6 1 3 1024.4 1024.5 0.0
27/04:30am 2.9 0.1 2.9 100 0.0 WSW 7 9 4 5 1024.3 1024.4 0.0
27/04:00am 3.0 0.4 3.0 100 0.0 SW 6 7 3 4 1024.1 1024.2 0.0
27/03:30am 2.9 1.4 2.9 100 0.0 CALM 0 0 0 0 1024.2 1024.3 0.0
27/03:00am 3.0 1.1 3.0 100 0.0 N 2 7 1 4 1024.1 1024.2 0.0
27/02:30am 2.9 0.2 2.9 100 0.0 N 6 7 3 4 1024.2 1024.3 0.0
27/02:00am 2.9 0.1 2.9 100 0.0 NE 7 9 4 5 1024.2 1024.3 0.0
27/01:30am 3.0 1.5 3.0 100 0.0 CALM 0 6 0 3 1024.7 1024.8 0.0
27/01:00am 2.9 0.2 2.9 100 0.0 ESE 6 7 3 4 1024.8 1024.9 0.0
27/12:30am 4.4 2.0 4.4 100 0.0 SSW 6 7 3 4 1024.8 1024.9 0.0
27/12:00am 4.1 1.1 4.1 100 0.0 SSW 9 13 5 7 1024.8 1024.9 0.0
 
Date/Time
CST
Temp
°C
App
Temp
°C
Dew
Point
Rel
Hum
%
Delta-T
°C
Wind Press
QNH
hPa
Press
MSL
hPa
Rain
since 9 am
mm
Dir
 
Spd
km/h
Gust
km/h
Spd
kts
Gust
kts
26/11:30pm 4.3 1.0 4.3 100 0.0 SSW 11 11 6 6 1024.7 1024.8 0.0
26/11:00pm 4.9 3.0 4.9 100 0.0 W 4 11 2 6 1024.6 1024.7 0.0
26/10:30pm 5.6 3.3 5.6 100 0.0 E 7 11 4 6 1024.7 1024.8 0.0
26/10:00pm 5.7 3.4 5.7 100 0.0 W 7 13 4 7 1025.0 1025.1 0.0
26/09:30pm 7.3 5.0 7.3 100 0.0 NE 9 13 5 7 1024.8 1024.9 0.0
26/09:00pm 7.8 5.6 7.8 100 0.0 SSE 9 13 5 7 1024.8 1024.9 0.0
26/08:30pm 8.7 6.3 8.7 100 0.0 SSE 11 17 6 9 1024.7 1024.8 0.0
26/08:00pm 9.2 7.3 9.2 100 0.0 ENE 9 13 5 7 1023.9 1024.0 0.0
26/07:30pm 9.0 7.4 8.7 98 0.1 NE 7 9 4 5 1023.9 1024.0 0.0
26/07:00pm 10.1 8.2 9.0 93 0.5 NE 9 11 5 6 1023.7 1023.8 0.0
26/06:30pm 12.1 11.0 10.0 87 1.1 E 6 9 3 5 1023.8 1023.9 0.0
26/06:00pm 14.1 12.5 11.6 85 1.3 E 11 13 6 7 1023.8 1023.9 0.0
26/05:30pm 18.3 18.5 10.4 60 4.2 CALM 0 0 0 0 1023.6 1023.7 0.0
26/05:00pm 19.1 19.2 10.1 56 4.8 CALM 0 0 0 0 1023.3 1023.4 0.0
26/04:30pm 18.8 18.4 8.2 50 5.4 CALM 0 0 0 0 1023.2 1023.3 0.0
26/04:00pm 19.8 18.2 8.2 47 6.0 NNW 6 9 3 5 1023.3 1023.4 0.0
26/03:30pm 19.5 18.6 7.9 47 6.0 SSW 2 11 1 6 1023.3 1023.4 0.0
26/03:00pm 20.1 18.8 7.5 44 6.4 WNW 4 9 2 5 1023.4 1023.5 0.0
26/02:30pm 20.0 19.0 7.4 44 6.4 NNW 2 7 1 4 1023.7 1023.8 0.0
26/02:00pm 19.1 17.1 6.9 45 6.2 SSE 7 11 4 6 1023.9 1024.0 0.0
26/01:30pm 18.6 16.5 6.8 46 5.9 ESE 7 11 4 6 1024.1 1024.2 0.0
26/01:00pm 18.9 17.0 6.7 45 6.1 N 6 9 3 5 1024.5 1024.6 0.0
26/12:30pm 18.2 15.7 6.7 47 5.7 ENE 9 15 5 8 1025.0 1025.1 0.0
26/12:00pm 18.3 16.4 7.4 49 5.5 N 7 13 4 7 1025.4 1025.5 0.0
26/11:30am 17.3 14.7 9.2 59 4.2 ENE 13 19 7 10 1025.6 1025.7 0.0
26/11:00am 16.4 13.6 8.6 60 4.0 NE 13 19 7 10 1026.0 1026.1 0.0
26/10:30am 15.5 12.6 8.3 62 3.6 NE 13 17 7 9 1026.4 1026.5 0.0
26/10:00am 14.7 13.5 10.3 75 2.3 ENE 7 11 4 6 1026.7 1026.8 0.0
26/09:30am 12.3 13.0 12.3 100 0.0 CALM 0 0 0 0 1026.7 1026.8 0.0
26/09:00am 9.3 9.2 9.3 100 0.0 CALM 0 0 0 0 1027.0 1027.1 0.2

Other Formats:

Comma delimited format used in spreadsheet applications
http://www.bom.gov.au/fwo/IDS60801/IDS60801.95663.axf

JavaScript Object Notation format (JSON) in row-major order
http://www.bom.gov.au/fwo/IDS60801/IDS60801.95663.json